sensor_id;sensor_type;location;lat;lon;timestamp;temperature;humidity
15991;DHT22;8100;50.994;4.538;2023-02-22T00:00:41;5.40;99.90
15991;DHT22;8100;50.994;4.538;2023-02-22T00:03:30;6.30;99.90
15991;DHT22;8100;50.994;4.538;2023-02-22T00:06:20;5.90;99.90
15991;DHT22;8100;50.994;4.538;2023-02-22T00:09:09;5.70;99.90
15991;DHT22;8100;50.994;4.538;2023-02-22T00:11:57;5.60;99.90
15991;DHT22;8100;50.994;4.538;2023-02-22T00:14:46;5.60;99.90
15991;DHT22;8100;50.994;4.538;2023-02-22T00:17:33;5.30;99.90
15991;DHT22;8100;50.994;4.538;2023-02-22T00:20:20;6.30;99.90
15991;DHT22;8100;50.994;4.538;2023-02-22T00:23:13;5.30;99.90
15991;DHT22;8100;50.994;4.538;2023-02-22T00:26:05;5.90;99.90
15991;DHT22;8100;50.994;4.538;2023-02-22T00:28:54;6.40;99.90
15991;DHT22;8100;50.994;4.538;2023-02-22T00:31:43;6.40;99.90
15991;DHT22;8100;50.994;4.538;2023-02-22T00:34:30;5.30;99.90
15991;DHT22;8100;50.994;4.538;2023-02-22T00:37:17;5.40;99.90
15991;DHT22;8100;50.994;4.538;2023-02-22T00:40:05;6.40;99.90
15991;DHT22;8100;50.994;4.538;2023-02-22T00:42:53;5.70;99.90
15991;DHT22;8100;50.994;4.538;2023-02-22T00:45:41;6.40;99.90
15991;DHT22;8100;50.994;4.538;2023-02-22T00:48:29;6.40;99.90
15991;DHT22;8100;50.994;4.538;2023-02-22T00:51:16;5.50;99.90
15991;DHT22;8100;50.994;4.538;2023-02-22T00:54:04;5.30;99.90
15991;DHT22;8100;50.994;4.538;2023-02-22T00:56:51;6.20;99.90
15991;DHT22;8100;50.994;4.538;2023-02-22T00:59:39;6.00;99.90
15991;DHT22;8100;50.994;4.538;2023-02-22T01:02:26;5.90;99.90
15991;DHT22;8100;50.994;4.538;2023-02-22T01:05:15;5.30;99.90
15991;DHT22;8100;50.994;4.538;2023-02-22T01:08:04;5.30;99.90
15991;DHT22;8100;50.994;4.538;2023-02-22T01:10:52;5.80;99.90
15991;DHT22;8100;50.994;4.538;2023-02-22T01:13:39;5.90;99.90
15991;DHT22;8100;50.994;4.538;2023-02-22T01:16:27;6.40;99.90
15991;DHT22;8100;50.994;4.538;2023-02-22T01:19:14;6.00;99.90
15991;DHT22;8100;50.994;4.538;2023-02-22T01:22:02;5.50;99.90
15991;DHT22;8100;50.994;4.538;2023-02-22T01:24:50;6.10;99.90
15991;DHT22;8100;50.994;4.538;2023-02-22T01:27:38;5.30;99.90
15991;DHT22;8100;50.994;4.538;2023-02-22T01:30:26;5.20;99.90
15991;DHT22;8100;50.994;4.538;2023-02-22T01:33:14;6.00;99.90
15991;DHT22;8100;50.994;4.538;2023-02-22T01:36:01;6.30;99.90
15991;DHT22;8100;50.994;4.538;2023-02-22T01:38:50;5.70;99.90
15991;DHT22;8100;50.994;4.538;2023-02-22T01:41:38;6.30;99.90
15991;DHT22;8100;50.994;4.538;2023-02-22T01:44:28;5.10;99.90
15991;DHT22;8100;50.994;4.538;2023-02-22T01:47:15;5.30;99.90
15991;DHT22;8100;50.994;4.538;2023-02-22T01:50:02;5.10;99.90
15991;DHT22;8100;50.994;4.538;2023-02-22T01:52:50;6.20;99.90
15991;DHT22;8100;50.994;4.538;2023-02-22T01:55:39;5.10;99.90
15991;DHT22;8100;50.994;4.538;2023-02-22T01:58:28;5.40;99.90
15991;DHT22;8100;50.994;4.538;2023-02-22T02:01:18;5.10;99.90
15991;DHT22;8100;50.994;4.538;2023-02-22T02:04:10;5.80;99.90
15991;DHT22;8100;50.994;4.538;2023-02-22T02:07:00;5.30;99.90
15991;DHT22;8100;50.994;4.538;2023-02-22T02:09:53;4.80;99.90
15991;DHT22;8100;50.994;4.538;2023-02-22T02:12:46;4.80;99.90
15991;DHT22;8100;50.994;4.538;2023-02-22T02:15:34;4.80;99.90
15991;DHT22;8100;50.994;4.538;2023-02-22T02:18:23;4.80;99.90
15991;DHT22;8100;50.994;4.538;2023-02-22T02:21:29;4.80;99.90
15991;DHT22;8100;50.994;4.538;2023-02-22T02:27:59;6.00;99.90
15991;DHT22;8100;50.994;4.538;2023-02-22T02:31:04;5.90;99.90
15991;DHT22;8100;50.994;4.538;2023-02-22T02:33:58;5.00;99.90
15991;DHT22;8100;50.994;4.538;2023-02-22T02:36:55;6.00;99.90
15991;DHT22;8100;50.994;4.538;2023-02-22T02:39:49;5.60;99.90
15991;DHT22;8100;50.994;4.538;2023-02-22T02:42:41;5.60;99.90
15991;DHT22;8100;50.994;4.538;2023-02-22T02:45:34;4.80;99.90
15991;DHT22;8100;50.994;4.538;2023-02-22T02:48:26;5.30;99.90
15991;DHT22;8100;50.994;4.538;2023-02-22T02:51:16;4.90;99.90
15991;DHT22;8100;50.994;4.538;2023-02-22T02:54:05;4.80;99.90
15991;DHT22;8100;50.994;4.538;2023-02-22T02:56:55;5.50;99.90
15991;DHT22;8100;50.994;4.538;2023-02-22T02:59:42;4.80;99.90
15991;DHT22;8100;50.994;4.538;2023-02-22T03:02:40;5.80;99.90
15991;DHT22;8100;50.994;4.538;2023-02-22T03:05:52;5.70;99.90
15991;DHT22;8100;50.994;4.538;2023-02-22T03:08:50;5.90;99.90
15991;DHT22;8100;50.994;4.538;2023-02-22T03:11:48;5.20;99.90
15991;DHT22;8100;50.994;4.538;2023-02-22T03:14:40;5.00;99.90
15991;DHT22;8100;50.994;4.538;2023-02-22T03:17:45;5.50;99.90
15991;DHT22;8100;50.994;4.538;2023-02-22T03:20:41;5.10;99.90
15991;DHT22;8100;50.994;4.538;2023-02-22T03:23:34;5.40;99.90
15991;DHT22;8100;50.994;4.538;2023-02-22T03:26:30;5.40;99.90
15991;DHT22;8100;50.994;4.538;2023-02-22T03:29:23;4.60;99.90
15991;DHT22;8100;50.994;4.538;2023-02-22T03:32:16;5.20;99.90
15991;DHT22;8100;50.994;4.538;2023-02-22T03:35:09;4.30;99.90
15991;DHT22;8100;50.994;4.538;2023-02-22T03:38:01;4.90;99.90
15991;DHT22;8100;50.994;4.538;2023-02-22T03:40:50;5.20;99.90
15991;DHT22;8100;50.994;4.538;2023-02-22T03:43:45;5.20;99.90
15991;DHT22;8100;50.994;4.538;2023-02-22T03:46:33;4.70;99.90
15991;DHT22;8100;50.994;4.538;2023-02-22T03:49:27;4.90;99.90
15991;DHT22;8100;50.994;4.538;2023-02-22T03:52:16;4.20;99.90
15991;DHT22;8100;50.994;4.538;2023-02-22T03:55:04;4.60;99.90
15991;DHT22;8100;50.994;4.538;2023-02-22T03:57:58;4.10;99.90
15991;DHT22;8100;50.994;4.538;2023-02-22T04:00:48;4.70;99.90
15991;DHT22;8100;50.994;4.538;2023-02-22T04:03:37;4.00;99.90
15991;DHT22;8100;50.994;4.538;2023-02-22T04:06:27;4.70;99.90
15991;DHT22;8100;50.994;4.538;2023-02-22T04:09:14;3.80;99.90
15991;DHT22;8100;50.994;4.538;2023-02-22T04:12:02;4.70;99.90
15991;DHT22;8100;50.994;4.538;2023-02-22T04:14:49;4.40;99.90
15991;DHT22;8100;50.994;4.538;2023-02-22T04:17:38;4.50;99.90
15991;DHT22;8100;50.994;4.538;2023-02-22T04:20:25;4.20;99.90
15991;DHT22;8100;50.994;4.538;2023-02-22T04:23:12;4.80;99.90
15991;DHT22;8100;50.994;4.538;2023-02-22T04:25:59;4.30;99.90
15991;DHT22;8100;50.994;4.538;2023-02-22T04:28:46;3.90;99.90
15991;DHT22;8100;50.994;4.538;2023-02-22T04:31:34;4.60;99.90
15991;DHT22;8100;50.994;4.538;2023-02-22T04:34:22;3.90;99.90
15991;DHT22;8100;50.994;4.538;2023-02-22T04:37:09;4.70;99.90
15991;DHT22;8100;50.994;4.538;2023-02-22T04:39:57;4.10;99.90
15991;DHT22;8100;50.994;4.538;2023-02-22T04:42:44;4.80;99.90
15991;DHT22;8100;50.994;4.538;2023-02-22T04:45:31;3.90;99.90
15991;DHT22;8100;50.994;4.538;2023-02-22T04:48:18;4.70;99.90
15991;DHT22;8100;50.994;4.538;2023-02-22T04:51:08;4.70;99.90
15991;DHT22;8100;50.994;4.538;2023-02-22T04:53:55;4.80;99.90
15991;DHT22;8100;50.994;4.538;2023-02-22T04:56:42;4.10;99.90
15991;DHT22;8100;50.994;4.538;2023-02-22T04:59:29;4.20;99.90
15991;DHT22;8100;50.994;4.538;2023-02-22T05:02:18;4.40;99.90
15991;DHT22;8100;50.994;4.538;2023-02-22T05:05:05;4.60;99.90
15991;DHT22;8100;50.994;4.538;2023-02-22T05:07:54;4.70;99.90
15991;DHT22;8100;50.994;4.538;2023-02-22T05:10:41;4.60;99.90
15991;DHT22;8100;50.994;4.538;2023-02-22T05:13:29;4.00;99.90
15991;DHT22;8100;50.994;4.538;2023-02-22T05:16:16;3.80;99.90
15991;DHT22;8100;50.994;4.538;2023-02-22T05:19:04;4.50;99.90
15991;DHT22;8100;50.994;4.538;2023-02-22T05:21:51;3.80;99.90
15991;DHT22;8100;50.994;4.538;2023-02-22T05:24:39;3.90;99.90
15991;DHT22;8100;50.994;4.538;2023-02-22T05:27:27;4.50;99.90
15991;DHT22;8100;50.994;4.538;2023-02-22T05:30:14;4.30;99.90
15991;DHT22;8100;50.994;4.538;2023-02-22T05:33:01;3.90;99.90
15991;DHT22;8100;50.994;4.538;2023-02-22T05:35:48;4.00;99.90
15991;DHT22;8100;50.994;4.538;2023-02-22T05:38:36;3.60;99.90
15991;DHT22;8100;50.994;4.538;2023-02-22T05:41:29;3.60;99.90
15991;DHT22;8100;50.994;4.538;2023-02-22T05:44:16;4.20;99.90
15991;DHT22;8100;50.994;4.538;2023-02-22T05:47:04;3.90;99.90
15991;DHT22;8100;50.994;4.538;2023-02-22T05:49:51;3.70;99.90
15991;DHT22;8100;50.994;4.538;2023-02-22T05:52:38;3.90;99.90
15991;DHT22;8100;50.994;4.538;2023-02-22T05:55:26;4.10;99.90
15991;DHT22;8100;50.994;4.538;2023-02-22T05:58:15;4.30;99.90
15991;DHT22;8100;50.994;4.538;2023-02-22T06:01:02;3.60;99.90
15991;DHT22;8100;50.994;4.538;2023-02-22T06:03:52;3.90;99.90
15991;DHT22;8100;50.994;4.538;2023-02-22T06:06:39;3.50;99.90
15991;DHT22;8100;50.994;4.538;2023-02-22T06:09:26;3.90;99.90
15991;DHT22;8100;50.994;4.538;2023-02-22T06:12:14;3.70;99.90
15991;DHT22;8100;50.994;4.538;2023-02-22T06:15:03;4.40;99.90
15991;DHT22;8100;50.994;4.538;2023-02-22T06:17:50;3.90;99.90
15991;DHT22;8100;50.994;4.538;2023-02-22T06:20:38;4.30;99.90
15991;DHT22;8100;50.994;4.538;2023-02-22T06:23:25;3.90;99.90
15991;DHT22;8100;50.994;4.538;2023-02-22T06:26:15;4.20;99.90
15991;DHT22;8100;50.994;4.538;2023-02-22T06:29:02;4.20;99.90
15991;DHT22;8100;50.994;4.538;2023-02-22T06:31:52;3.70;99.90
15991;DHT22;8100;50.994;4.538;2023-02-22T06:34:39;4.20;99.90
15991;DHT22;8100;50.994;4.538;2023-02-22T06:37:26;3.70;99.90
15991;DHT22;8100;50.994;4.538;2023-02-22T06:40:14;4.00;99.90
15991;DHT22;8100;50.994;4.538;2023-02-22T06:43:01;4.30;99.90
15991;DHT22;8100;50.994;4.538;2023-02-22T06:45:48;4.10;99.90
15991;DHT22;8100;50.994;4.538;2023-02-22T06:48:37;3.60;99.90
15991;DHT22;8100;50.994;4.538;2023-02-22T06:51:25;4.30;99.90
15991;DHT22;8100;50.994;4.538;2023-02-22T06:54:13;3.50;99.90
15991;DHT22;8100;50.994;4.538;2023-02-22T06:57:00;4.20;99.90
15991;DHT22;8100;50.994;4.538;2023-02-22T06:59:47;4.30;99.90
15991;DHT22;8100;50.994;4.538;2023-02-22T07:02:35;3.90;99.90
15991;DHT22;8100;50.994;4.538;2023-02-22T07:05:24;3.70;99.90
15991;DHT22;8100;50.994;4.538;2023-02-22T07:08:12;3.80;99.90
15991;DHT22;8100;50.994;4.538;2023-02-22T07:10:59;3.90;99.90
15991;DHT22;8100;50.994;4.538;2023-02-22T07:13:46;4.00;99.90
15991;DHT22;8100;50.994;4.538;2023-02-22T07:16:34;3.60;99.90
15991;DHT22;8100;50.994;4.538;2023-02-22T07:19:21;4.30;99.90
15991;DHT22;8100;50.994;4.538;2023-02-22T07:22:10;3.80;99.90
15991;DHT22;8100;50.994;4.538;2023-02-22T07:24:58;3.70;99.90
15991;DHT22;8100;50.994;4.538;2023-02-22T07:27:46;4.30;99.90
15991;DHT22;8100;50.994;4.538;2023-02-22T07:30:33;3.70;99.90
15991;DHT22;8100;50.994;4.538;2023-02-22T07:33:20;3.80;99.90
15991;DHT22;8100;50.994;4.538;2023-02-22T07:36:08;3.80;99.90
15991;DHT22;8100;50.994;4.538;2023-02-22T07:38:56;4.50;99.90
15991;DHT22;8100;50.994;4.538;2023-02-22T07:41:43;4.30;99.90
15991;DHT22;8100;50.994;4.538;2023-02-22T07:44:31;4.00;99.90
15991;DHT22;8100;50.994;4.538;2023-02-22T07:47:18;4.10;99.90
15991;DHT22;8100;50.994;4.538;2023-02-22T07:50:05;4.00;99.90
15991;DHT22;8100;50.994;4.538;2023-02-22T07:52:54;4.80;99.90
15991;DHT22;8100;50.994;4.538;2023-02-22T07:55:43;4.30;99.90
15991;DHT22;8100;50.994;4.538;2023-02-22T07:58:31;4.30;99.90
15991;DHT22;8100;50.994;4.538;2023-02-22T08:01:18;4.90;99.90
15991;DHT22;8100;50.994;4.538;2023-02-22T08:04:06;4.50;99.90
15991;DHT22;8100;50.994;4.538;2023-02-22T08:06:53;4.60;99.90
15991;DHT22;8100;50.994;4.538;2023-02-22T08:09:40;5.20;99.90
15991;DHT22;8100;50.994;4.538;2023-02-22T08:12:29;5.30;99.90
15991;DHT22;8100;50.994;4.538;2023-02-22T08:15:19;5.30;99.90
15991;DHT22;8100;50.994;4.538;2023-02-22T08:18:08;5.50;99.90
15991;DHT22;8100;50.994;4.538;2023-02-22T08:20:56;5.10;99.90
15991;DHT22;8100;50.994;4.538;2023-02-22T08:23:43;5.70;99.90
15991;DHT22;8100;50.994;4.538;2023-02-22T08:26:30;5.80;99.90
15991;DHT22;8100;50.994;4.538;2023-02-22T08:29:19;5.30;99.90
15991;DHT22;8100;50.994;4.538;2023-02-22T08:32:08;5.50;99.90
15991;DHT22;8100;50.994;4.538;2023-02-22T08:34:56;5.40;99.90
15991;DHT22;8100;50.994;4.538;2023-02-22T08:37:44;5.50;99.90
15991;DHT22;8100;50.994;4.538;2023-02-22T08:40:34;5.50;99.90
15991;DHT22;8100;50.994;4.538;2023-02-22T08:43:21;6.00;99.90
15991;DHT22;8100;50.994;4.538;2023-02-22T08:46:11;5.90;99.90
15991;DHT22;8100;50.994;4.538;2023-02-22T08:48:58;5.80;99.90
15991;DHT22;8100;50.994;4.538;2023-02-22T08:51:45;6.00;99.90
15991;DHT22;8100;50.994;4.538;2023-02-22T08:54:33;6.40;99.90
15991;DHT22;8100;50.994;4.538;2023-02-22T08:57:20;6.00;99.90
15991;DHT22;8100;50.994;4.538;2023-02-22T09:00:08;6.30;99.90
15991;DHT22;8100;50.994;4.538;2023-02-22T09:02:57;6.20;99.90
15991;DHT22;8100;50.994;4.538;2023-02-22T09:05:44;6.20;99.90
15991;DHT22;8100;50.994;4.538;2023-02-22T09:08:32;6.30;99.90
15991;DHT22;8100;50.994;4.538;2023-02-22T09:11:19;6.30;99.90
15991;DHT22;8100;50.994;4.538;2023-02-22T09:14:06;6.60;99.90
15991;DHT22;8100;50.994;4.538;2023-02-22T09:16:54;6.50;99.90
15991;DHT22;8100;50.994;4.538;2023-02-22T09:19:42;6.50;99.90
15991;DHT22;8100;50.994;4.538;2023-02-22T09:22:30;6.50;99.90
15991;DHT22;8100;50.994;4.538;2023-02-22T09:25:18;6.60;99.90
15991;DHT22;8100;50.994;4.538;2023-02-22T09:28:06;6.60;99.90
15991;DHT22;8100;50.994;4.538;2023-02-22T09:30:54;6.70;99.90
15991;DHT22;8100;50.994;4.538;2023-02-22T09:33:41;6.90;99.90
15991;DHT22;8100;50.994;4.538;2023-02-22T09:36:29;6.70;99.90
15991;DHT22;8100;50.994;4.538;2023-02-22T09:39:17;6.60;99.90
15991;DHT22;8100;50.994;4.538;2023-02-22T09:42:11;6.40;99.90
15991;DHT22;8100;50.994;4.538;2023-02-22T09:45:06;6.40;99.90
15991;DHT22;8100;50.994;4.538;2023-02-22T09:47:59;6.50;99.90
15991;DHT22;8100;50.994;4.538;2023-02-22T09:50:51;6.50;99.90
15991;DHT22;8100;50.994;4.538;2023-02-22T09:53:43;6.60;99.90
15991;DHT22;8100;50.994;4.538;2023-02-22T09:56:32;6.80;99.90
15991;DHT22;8100;50.994;4.538;2023-02-22T09:59:23;6.90;99.90
15991;DHT22;8100;50.994;4.538;2023-02-22T10:02:20;6.80;99.90
15991;DHT22;8100;50.994;4.538;2023-02-22T10:05:15;7.10;99.90
15991;DHT22;8100;50.994;4.538;2023-02-22T10:08:10;7.30;99.90
15991;DHT22;8100;50.994;4.538;2023-02-22T10:11:05;7.40;99.90
15991;DHT22;8100;50.994;4.538;2023-02-22T10:14:01;7.40;99.90
15991;DHT22;8100;50.994;4.538;2023-02-22T10:16:56;7.40;99.90
15991;DHT22;8100;50.994;4.538;2023-02-22T10:19:58;7.40;99.90
15991;DHT22;8100;50.994;4.538;2023-02-22T10:23:01;7.40;99.90
15991;DHT22;8100;50.994;4.538;2023-02-22T10:25:54;7.60;99.90
15991;DHT22;8100;50.994;4.538;2023-02-22T10:28:49;7.70;99.90
15991;DHT22;8100;50.994;4.538;2023-02-22T10:31:41;8.20;99.90
15991;DHT22;8100;50.994;4.538;2023-02-22T10:34:35;8.40;99.90
15991;DHT22;8100;50.994;4.538;2023-02-22T10:37:26;8.20;99.90
15991;DHT22;8100;50.994;4.538;2023-02-22T10:40:16;8.20;99.90
15991;DHT22;8100;50.994;4.538;2023-02-22T10:43:05;8.40;99.90
15991;DHT22;8100;50.994;4.538;2023-02-22T10:45:56;8.40;99.90
15991;DHT22;8100;50.994;4.538;2023-02-22T10:48:47;8.50;99.90
15991;DHT22;8100;50.994;4.538;2023-02-22T10:51:36;8.80;99.90
15991;DHT22;8100;50.994;4.538;2023-02-22T10:54:28;8.80;99.90
15991;DHT22;8100;50.994;4.538;2023-02-22T10:57:19;8.90;99.90
15991;DHT22;8100;50.994;4.538;2023-02-22T11:00:15;9.20;99.90
15991;DHT22;8100;50.994;4.538;2023-02-22T11:03:16;9.30;99.90
15991;DHT22;8100;50.994;4.538;2023-02-22T11:06:18;9.30;99.90
15991;DHT22;8100;50.994;4.538;2023-02-22T11:09:09;9.50;99.90
15991;DHT22;8100;50.994;4.538;2023-02-22T11:12:08;9.60;99.90
15991;DHT22;8100;50.994;4.538;2023-02-22T11:14:55;9.60;99.90
15991;DHT22;8100;50.994;4.538;2023-02-22T11:17:44;9.90;99.90
15991;DHT22;8100;50.994;4.538;2023-02-22T11:20:36;10.00;99.90
15991;DHT22;8100;50.994;4.538;2023-02-22T11:23:25;10.20;99.90
15991;DHT22;8100;50.994;4.538;2023-02-22T11:26:14;10.10;99.90
15991;DHT22;8100;50.994;4.538;2023-02-22T11:29:11;10.00;99.90
15991;DHT22;8100;50.994;4.538;2023-02-22T11:32:01;10.00;99.90
15991;DHT22;8100;50.994;4.538;2023-02-22T11:34:50;9.90;99.90
15991;DHT22;8100;50.994;4.538;2023-02-22T11:37:39;9.90;99.90
15991;DHT22;8100;50.994;4.538;2023-02-22T11:40:27;10.10;99.90
15991;DHT22;8100;50.994;4.538;2023-02-22T11:43:16;10.00;99.90
15991;DHT22;8100;50.994;4.538;2023-02-22T11:46:06;10.00;99.90
15991;DHT22;8100;50.994;4.538;2023-02-22T11:49:00;9.90;99.90
15991;DHT22;8100;50.994;4.538;2023-02-22T11:52:02;9.90;99.90
15991;DHT22;8100;50.994;4.538;2023-02-22T11:55:12;9.80;99.90
15991;DHT22;8100;50.994;4.538;2023-02-22T11:58:24;9.90;99.90
15991;DHT22;8100;50.994;4.538;2023-02-22T12:01:20;9.90;99.90
15991;DHT22;8100;50.994;4.538;2023-02-22T12:04:22;10.00;99.90
15991;DHT22;8100;50.994;4.538;2023-02-22T12:07:28;10.10;99.90
15991;DHT22;8100;50.994;4.538;2023-02-22T12:10:26;10.30;99.90
15991;DHT22;8100;50.994;4.538;2023-02-22T12:13:29;10.40;99.90
15991;DHT22;8100;50.994;4.538;2023-02-22T12:16:30;10.60;99.90
15991;DHT22;8100;50.994;4.538;2023-02-22T12:19:29;10.60;99.90
15991;DHT22;8100;50.994;4.538;2023-02-22T12:22:20;10.70;99.90
15991;DHT22;8100;50.994;4.538;2023-02-22T12:25:17;10.70;99.90
15991;DHT22;8100;50.994;4.538;2023-02-22T12:28:15;10.70;99.90
15991;DHT22;8100;50.994;4.538;2023-02-22T12:31:12;10.70;99.90
15991;DHT22;8100;50.994;4.538;2023-02-22T12:34:07;10.80;99.90
15991;DHT22;8100;50.994;4.538;2023-02-22T12:37:02;10.90;99.90
15991;DHT22;8100;50.994;4.538;2023-02-22T12:39:57;10.90;99.90
15991;DHT22;8100;50.994;4.538;2023-02-22T12:42:50;11.10;99.90
15991;DHT22;8100;50.994;4.538;2023-02-22T12:45:43;11.10;99.90
15991;DHT22;8100;50.994;4.538;2023-02-22T12:48:41;11.00;99.90
15991;DHT22;8100;50.994;4.538;2023-02-22T12:51:33;10.90;99.90
15991;DHT22;8100;50.994;4.538;2023-02-22T12:54:26;10.90;99.90
15991;DHT22;8100;50.994;4.538;2023-02-22T12:57:19;10.90;99.90
15991;DHT22;8100;50.994;4.538;2023-02-22T13:00:14;11.00;99.90
15991;DHT22;8100;50.994;4.538;2023-02-22T13:03:25;11.00;99.90
15991;DHT22;8100;50.994;4.538;2023-02-22T13:06:23;11.10;99.90
15991;DHT22;8100;50.994;4.538;2023-02-22T13:09:36;11.10;99.90
15991;DHT22;8100;50.994;4.538;2023-02-22T13:12:30;11.10;99.90
15991;DHT22;8100;50.994;4.538;2023-02-22T13:15:24;11.10;99.90
15991;DHT22;8100;50.994;4.538;2023-02-22T13:18:22;11.00;99.90
15991;DHT22;8100;50.994;4.538;2023-02-22T13:21:14;11.00;99.90
15991;DHT22;8100;50.994;4.538;2023-02-22T13:24:05;11.10;99.90
15991;DHT22;8100;50.994;4.538;2023-02-22T13:27:00;11.30;99.90
15991;DHT22;8100;50.994;4.538;2023-02-22T13:29:53;11.40;99.90
15991;DHT22;8100;50.994;4.538;2023-02-22T13:32:56;11.30;99.90
15991;DHT22;8100;50.994;4.538;2023-02-22T13:36:04;11.20;99.90
15991;DHT22;8100;50.994;4.538;2023-02-22T13:39:16;11.20;99.90
15991;DHT22;8100;50.994;4.538;2023-02-22T13:42:22;11.20;99.90
15991;DHT22;8100;50.994;4.538;2023-02-22T13:45:39;11.10;99.90
15991;DHT22;8100;50.994;4.538;2023-02-22T13:51:51;10.90;99.90
15991;DHT22;8100;50.994;4.538;2023-02-22T13:54:43;10.80;99.90
15991;DHT22;8100;50.994;4.538;2023-02-22T13:57:37;10.70;99.90
15991;DHT22;8100;50.994;4.538;2023-02-22T14:00:43;10.60;99.90
15991;DHT22;8100;50.994;4.538;2023-02-22T14:03:34;10.60;99.90
15991;DHT22;8100;50.994;4.538;2023-02-22T14:06:38;10.60;99.90
15991;DHT22;8100;50.994;4.538;2023-02-22T14:09:45;10.50;99.90
15991;DHT22;8100;50.994;4.538;2023-02-22T14:12:48;10.50;99.90
15991;DHT22;8100;50.994;4.538;2023-02-22T14:16:15;10.60;99.90
15991;DHT22;8100;50.994;4.538;2023-02-22T14:19:04;10.50;99.90
15991;DHT22;8100;50.994;4.538;2023-02-22T14:22:00;10.50;99.90
15991;DHT22;8100;50.994;4.538;2023-02-22T14:24:49;10.60;99.90
15991;DHT22;8100;50.994;4.538;2023-02-22T14:27:40;10.60;99.90
15991;DHT22;8100;50.994;4.538;2023-02-22T14:30:29;10.60;99.90
15991;DHT22;8100;50.994;4.538;2023-02-22T14:33:49;10.50;99.90
15991;DHT22;8100;50.994;4.538;2023-02-22T14:36:50;10.50;99.90
15991;DHT22;8100;50.994;4.538;2023-02-22T14:39:42;10.40;99.90
15991;DHT22;8100;50.994;4.538;2023-02-22T14:42:33;10.30;99.90
15991;DHT22;8100;50.994;4.538;2023-02-22T14:45:23;10.30;99.90
15991;DHT22;8100;50.994;4.538;2023-02-22T14:48:19;10.30;99.90
15991;DHT22;8100;50.994;4.538;2023-02-22T14:51:14;10.30;99.90
15991;DHT22;8100;50.994;4.538;2023-02-22T14:54:06;10.20;99.90
15991;DHT22;8100;50.994;4.538;2023-02-22T14:57:04;10.20;99.90
15991;DHT22;8100;50.994;4.538;2023-02-22T15:00:06;10.20;99.90
15991;DHT22;8100;50.994;4.538;2023-02-22T15:03:04;10.20;99.90
15991;DHT22;8100;50.994;4.538;2023-02-22T15:05:52;10.10;99.90
15991;DHT22;8100;50.994;4.538;2023-02-22T15:08:39;10.10;99.90
15991;DHT22;8100;50.994;4.538;2023-02-22T15:11:28;10.10;99.90
15991;DHT22;8100;50.994;4.538;2023-02-22T15:14:20;10.10;99.90
15991;DHT22;8100;50.994;4.538;2023-02-22T15:17:14;10.00;99.90
15991;DHT22;8100;50.994;4.538;2023-02-22T15:20:05;10.00;99.90
15991;DHT22;8100;50.994;4.538;2023-02-22T15:22:58;10.00;99.90
15991;DHT22;8100;50.994;4.538;2023-02-22T15:25:46;10.00;99.90
15991;DHT22;8100;50.994;4.538;2023-02-22T15:28:35;10.00;99.90
15991;DHT22;8100;50.994;4.538;2023-02-22T15:31:27;9.90;99.90
15991;DHT22;8100;50.994;4.538;2023-02-22T15:34:20;9.90;99.90
15991;DHT22;8100;50.994;4.538;2023-02-22T15:37:18;9.90;99.90
15991;DHT22;8100;50.994;4.538;2023-02-22T15:40:13;9.80;99.90
15991;DHT22;8100;50.994;4.538;2023-02-22T15:43:02;9.70;99.90
15991;DHT22;8100;50.994;4.538;2023-02-22T15:45:53;9.60;99.90
15991;DHT22;8100;50.994;4.538;2023-02-22T15:48:41;9.60;99.90
15991;DHT22;8100;50.994;4.538;2023-02-22T15:51:29;9.60;99.90
15991;DHT22;8100;50.994;4.538;2023-02-22T15:54:17;9.50;99.90
15991;DHT22;8100;50.994;4.538;2023-02-22T15:57:06;9.50;99.90
15991;DHT22;8100;50.994;4.538;2023-02-22T15:59:55;9.50;99.90
15991;DHT22;8100;50.994;4.538;2023-02-22T16:02:43;9.40;99.90
15991;DHT22;8100;50.994;4.538;2023-02-22T16:05:36;9.40;99.90
15991;DHT22;8100;50.994;4.538;2023-02-22T16:08:29;9.30;99.90
15991;DHT22;8100;50.994;4.538;2023-02-22T16:11:24;9.30;99.90
15991;DHT22;8100;50.994;4.538;2023-02-22T16:14:24;9.30;99.90
15991;DHT22;8100;50.994;4.538;2023-02-22T16:17:24;9.30;99.90
15991;DHT22;8100;50.994;4.538;2023-02-22T16:20:33;9.20;99.90
15991;DHT22;8100;50.994;4.538;2023-02-22T16:23:22;9.20;99.90
15991;DHT22;8100;50.994;4.538;2023-02-22T16:26:26;9.20;99.90
15991;DHT22;8100;50.994;4.538;2023-02-22T16:29:24;9.20;99.90
15991;DHT22;8100;50.994;4.538;2023-02-22T16:32:12;9.20;99.90
15991;DHT22;8100;50.994;4.538;2023-02-22T16:35:00;9.10;99.90
15991;DHT22;8100;50.994;4.538;2023-02-22T16:37:48;9.20;99.90
15991;DHT22;8100;50.994;4.538;2023-02-22T16:40:38;9.10;99.90
15991;DHT22;8100;50.994;4.538;2023-02-22T16:43:31;9.10;99.90
15991;DHT22;8100;50.994;4.538;2023-02-22T16:46:19;9.10;99.90
15991;DHT22;8100;50.994;4.538;2023-02-22T16:49:07;9.10;99.90
15991;DHT22;8100;50.994;4.538;2023-02-22T16:51:58;9.10;99.90
15991;DHT22;8100;50.994;4.538;2023-02-22T16:54:46;9.10;99.90
15991;DHT22;8100;50.994;4.538;2023-02-22T16:57:34;9.10;99.90
15991;DHT22;8100;50.994;4.538;2023-02-22T17:00:24;9.10;99.90
15991;DHT22;8100;50.994;4.538;2023-02-22T17:03:17;9.10;99.90
15991;DHT22;8100;50.994;4.538;2023-02-22T17:06:05;9.10;99.90
15991;DHT22;8100;50.994;4.538;2023-02-22T17:08:55;9.00;99.90
15991;DHT22;8100;50.994;4.538;2023-02-22T17:11:42;9.00;99.90
15991;DHT22;8100;50.994;4.538;2023-02-22T17:14:33;9.10;99.90
15991;DHT22;8100;50.994;4.538;2023-02-22T17:17:22;9.00;99.90
15991;DHT22;8100;50.994;4.538;2023-02-22T17:20:11;9.00;99.90
15991;DHT22;8100;50.994;4.538;2023-02-22T17:22:59;8.90;99.90
15991;DHT22;8100;50.994;4.538;2023-02-22T17:25:50;9.00;99.90
15991;DHT22;8100;50.994;4.538;2023-02-22T17:28:39;9.00;99.90
15991;DHT22;8100;50.994;4.538;2023-02-22T17:31:29;8.90;99.90
15991;DHT22;8100;50.994;4.538;2023-02-22T17:34:18;9.00;99.90
15991;DHT22;8100;50.994;4.538;2023-02-22T17:37:05;8.90;99.90
15991;DHT22;8100;50.994;4.538;2023-02-22T17:39:53;9.00;99.90
15991;DHT22;8100;50.994;4.538;2023-02-22T17:42:41;9.00;99.90
15991;DHT22;8100;50.994;4.538;2023-02-22T17:45:29;8.90;99.90
15991;DHT22;8100;50.994;4.538;2023-02-22T17:48:17;8.90;99.90
15991;DHT22;8100;50.994;4.538;2023-02-22T17:51:08;8.90;99.90
15991;DHT22;8100;50.994;4.538;2023-02-22T17:53:55;8.80;99.90
15991;DHT22;8100;50.994;4.538;2023-02-22T17:56:42;9.00;99.90
15991;DHT22;8100;50.994;4.538;2023-02-22T17:59:30;8.90;99.90
15991;DHT22;8100;50.994;4.538;2023-02-22T18:02:17;9.00;99.90
15991;DHT22;8100;50.994;4.538;2023-02-22T18:05:05;9.00;99.90
15991;DHT22;8100;50.994;4.538;2023-02-22T18:07:54;9.00;99.90
15991;DHT22;8100;50.994;4.538;2023-02-22T18:10:41;9.00;99.90
15991;DHT22;8100;50.994;4.538;2023-02-22T18:13:29;8.90;99.90
15991;DHT22;8100;50.994;4.538;2023-02-22T18:16:16;9.00;99.90
15991;DHT22;8100;50.994;4.538;2023-02-22T18:19:03;8.80;99.90
15991;DHT22;8100;50.994;4.538;2023-02-22T18:21:51;9.00;99.90
15991;DHT22;8100;50.994;4.538;2023-02-22T18:24:39;8.70;99.90
15991;DHT22;8100;50.994;4.538;2023-02-22T18:27:26;8.80;99.90
15991;DHT22;8100;50.994;4.538;2023-02-22T18:30:14;8.80;99.90
15991;DHT22;8100;50.994;4.538;2023-02-22T18:33:03;8.70;99.90
15991;DHT22;8100;50.994;4.538;2023-02-22T18:35:56;8.70;99.90
15991;DHT22;8100;50.994;4.538;2023-02-22T18:38:44;9.00;99.90
15991;DHT22;8100;50.994;4.538;2023-02-22T18:41:32;8.90;99.90